sensor_id;sensor_type;location;lat;lon;timestamp;temperature;humidity
17986;DHT22;9118;48.122;11.546;2022-10-26T00:00:32;12.70;99.90
17986;DHT22;9118;48.122;11.546;2022-10-26T00:03:00;12.80;99.90
17986;DHT22;9118;48.122;11.546;2022-10-26T00:05:27;12.80;99.90
17986;DHT22;9118;48.122;11.546;2022-10-26T00:07:54;12.80;99.90
17986;DHT22;9118;48.122;11.546;2022-10-26T00:10:21;12.80;99.90
17986;DHT22;9118;48.122;11.546;2022-10-26T00:12:48;12.80;99.90
17986;DHT22;9118;48.122;11.546;2022-10-26T00:15:16;12.80;99.90
17986;DHT22;9118;48.122;11.546;2022-10-26T00:17:43;12.80;99.90
17986;DHT22;9118;48.122;11.546;2022-10-26T00:20:12;12.80;99.90
17986;DHT22;9118;48.122;11.546;2022-10-26T00:22:39;12.80;99.90
17986;DHT22;9118;48.122;11.546;2022-10-26T00:25:08;12.80;99.90
17986;DHT22;9118;48.122;11.546;2022-10-26T00:27:35;12.80;99.90
17986;DHT22;9118;48.122;11.546;2022-10-26T00:30:05;12.80;99.90
17986;DHT22;9118;48.122;11.546;2022-10-26T00:32:33;12.80;99.90
17986;DHT22;9118;48.122;11.546;2022-10-26T00:35:00;12.80;99.90
17986;DHT22;9118;48.122;11.546;2022-10-26T00:37:28;12.80;99.90
17986;DHT22;9118;48.122;11.546;2022-10-26T00:39:55;12.80;99.90
17986;DHT22;9118;48.122;11.546;2022-10-26T00:42:22;12.90;99.90
17986;DHT22;9118;48.122;11.546;2022-10-26T00:44:58;12.90;99.90
17986;DHT22;9118;48.122;11.546;2022-10-26T00:47:37;12.90;99.90
17986;DHT22;9118;48.122;11.546;2022-10-26T00:50:08;12.90;99.90
17986;DHT22;9118;48.122;11.546;2022-10-26T00:52:38;12.90;99.90
17986;DHT22;9118;48.122;11.546;2022-10-26T00:55:06;12.90;99.90
17986;DHT22;9118;48.122;11.546;2022-10-26T00:57:35;12.90;99.90
17986;DHT22;9118;48.122;11.546;2022-10-26T01:00:03;12.90;99.90
17986;DHT22;9118;48.122;11.546;2022-10-26T01:02:31;12.90;99.90
17986;DHT22;9118;48.122;11.546;2022-10-26T01:04:59;12.90;99.90
17986;DHT22;9118;48.122;11.546;2022-10-26T01:07:27;12.70;99.90
17986;DHT22;9118;48.122;11.546;2022-10-26T01:09:57;12.60;99.90
17986;DHT22;9118;48.122;11.546;2022-10-26T01:12:24;12.60;99.90
17986;DHT22;9118;48.122;11.546;2022-10-26T01:14:51;12.40;99.90
17986;DHT22;9118;48.122;11.546;2022-10-26T01:17:28;12.30;99.90
17986;DHT22;9118;48.122;11.546;2022-10-26T01:20:24;12.30;99.90
17986;DHT22;9118;48.122;11.546;2022-10-26T01:23:02;12.30;99.90
17986;DHT22;9118;48.122;11.546;2022-10-26T01:25:44;12.40;99.90
17986;DHT22;9118;48.122;11.546;2022-10-26T01:28:23;12.50;99.90
17986;DHT22;9118;48.122;11.546;2022-10-26T01:30:56;12.60;99.90
17986;DHT22;9118;48.122;11.546;2022-10-26T01:33:30;12.50;99.90
17986;DHT22;9118;48.122;11.546;2022-10-26T01:36:08;12.40;99.90
17986;DHT22;9118;48.122;11.546;2022-10-26T01:38:44;12.50;99.90
17986;DHT22;9118;48.122;11.546;2022-10-26T01:41:18;12.50;99.90
17986;DHT22;9118;48.122;11.546;2022-10-26T01:43:51;12.40;99.90
17986;DHT22;9118;48.122;11.546;2022-10-26T01:46:23;12.40;99.90
17986;DHT22;9118;48.122;11.546;2022-10-26T01:48:54;12.50;99.90
17986;DHT22;9118;48.122;11.546;2022-10-26T01:51:24;12.60;99.90
17986;DHT22;9118;48.122;11.546;2022-10-26T01:53:52;12.70;99.90
17986;DHT22;9118;48.122;11.546;2022-10-26T01:56:22;12.70;99.90
17986;DHT22;9118;48.122;11.546;2022-10-26T01:59:18;12.80;99.90
17986;DHT22;9118;48.122;11.546;2022-10-26T02:02:09;12.60;99.90
17986;DHT22;9118;48.122;11.546;2022-10-26T02:04:49;12.60;99.90
17986;DHT22;9118;48.122;11.546;2022-10-26T02:07:26;12.70;99.90
17986;DHT22;9118;48.122;11.546;2022-10-26T02:09:59;12.70;99.90
17986;DHT22;9118;48.122;11.546;2022-10-26T02:12:41;12.60;99.90
17986;DHT22;9118;48.122;11.546;2022-10-26T02:15:16;12.50;99.90
17986;DHT22;9118;48.122;11.546;2022-10-26T02:17:50;12.60;99.90
17986;DHT22;9118;48.122;11.546;2022-10-26T02:20:22;12.70;99.90
17986;DHT22;9118;48.122;11.546;2022-10-26T02:22:53;12.60;99.90
17986;DHT22;9118;48.122;11.546;2022-10-26T02:25:23;12.50;99.90
17986;DHT22;9118;48.122;11.546;2022-10-26T02:27:56;12.60;99.90
17986;DHT22;9118;48.122;11.546;2022-10-26T02:30:24;12.60;99.90
17986;DHT22;9118;48.122;11.546;2022-10-26T02:32:55;12.60;99.90
17986;DHT22;9118;48.122;11.546;2022-10-26T02:35:28;12.50;99.90
17986;DHT22;9118;48.122;11.546;2022-10-26T02:37:57;12.30;99.90
17986;DHT22;9118;48.122;11.546;2022-10-26T02:40:27;12.40;99.90
17986;DHT22;9118;48.122;11.546;2022-10-26T02:42:56;12.40;99.90
17986;DHT22;9118;48.122;11.546;2022-10-26T02:45:29;12.50;99.90
17986;DHT22;9118;48.122;11.546;2022-10-26T02:47:58;12.50;99.90
17986;DHT22;9118;48.122;11.546;2022-10-26T02:50:28;12.50;99.90
17986;DHT22;9118;48.122;11.546;2022-10-26T02:53:04;12.40;99.90
17986;DHT22;9118;48.122;11.546;2022-10-26T02:55:37;12.50;99.90
17986;DHT22;9118;48.122;11.546;2022-10-26T02:58:11;12.60;99.90
17986;DHT22;9118;48.122;11.546;2022-10-26T03:00:39;12.70;99.90
17986;DHT22;9118;48.122;11.546;2022-10-26T03:03:07;12.80;99.90
17986;DHT22;9118;48.122;11.546;2022-10-26T03:05:35;12.80;99.90
17986;DHT22;9118;48.122;11.546;2022-10-26T03:08:02;12.90;99.90
17986;DHT22;9118;48.122;11.546;2022-10-26T03:10:31;12.90;99.90
17986;DHT22;9118;48.122;11.546;2022-10-26T03:12:58;13.00;99.90
17986;DHT22;9118;48.122;11.546;2022-10-26T03:15:25;12.90;99.90
17986;DHT22;9118;48.122;11.546;2022-10-26T03:17:52;13.00;99.90
17986;DHT22;9118;48.122;11.546;2022-10-26T03:20:20;13.00;99.90
17986;DHT22;9118;48.122;11.546;2022-10-26T03:22:47;13.00;99.90
17986;DHT22;9118;48.122;11.546;2022-10-26T03:25:14;13.00;99.90
17986;DHT22;9118;48.122;11.546;2022-10-26T03:27:41;13.00;99.90
17986;DHT22;9118;48.122;11.546;2022-10-26T03:30:09;13.00;99.90
17986;DHT22;9118;48.122;11.546;2022-10-26T03:32:37;13.00;99.90
17986;DHT22;9118;48.122;11.546;2022-10-26T03:35:04;13.10;99.90
17986;DHT22;9118;48.122;11.546;2022-10-26T03:37:33;13.10;99.90
17986;DHT22;9118;48.122;11.546;2022-10-26T03:40:00;13.10;99.90
17986;DHT22;9118;48.122;11.546;2022-10-26T03:42:26;13.10;99.90
17986;DHT22;9118;48.122;11.546;2022-10-26T03:44:54;13.10;99.90
17986;DHT22;9118;48.122;11.546;2022-10-26T03:47:20;13.20;99.90
17986;DHT22;9118;48.122;11.546;2022-10-26T03:49:47;12.90;99.90
17986;DHT22;9118;48.122;11.546;2022-10-26T03:52:14;13.10;99.90
17986;DHT22;9118;48.122;11.546;2022-10-26T03:54:42;13.10;99.90
17986;DHT22;9118;48.122;11.546;2022-10-26T03:57:09;13.20;99.90
17986;DHT22;9118;48.122;11.546;2022-10-26T03:59:36;13.10;99.90
17986;DHT22;9118;48.122;11.546;2022-10-26T04:02:03;13.10;99.90
17986;DHT22;9118;48.122;11.546;2022-10-26T04:04:30;13.20;99.90
17986;DHT22;9118;48.122;11.546;2022-10-26T04:06:57;12.80;99.90
17986;DHT22;9118;48.122;11.546;2022-10-26T04:09:24;13.10;99.90
17986;DHT22;9118;48.122;11.546;2022-10-26T04:11:52;13.10;99.90
17986;DHT22;9118;48.122;11.546;2022-10-26T04:14:20;13.20;99.90
17986;DHT22;9118;48.122;11.546;2022-10-26T04:16:47;13.10;99.90
17986;DHT22;9118;48.122;11.546;2022-10-26T04:19:14;13.00;99.90
17986;DHT22;9118;48.122;11.546;2022-10-26T04:21:40;12.90;99.90
17986;DHT22;9118;48.122;11.546;2022-10-26T04:24:09;12.90;99.90
17986;DHT22;9118;48.122;11.546;2022-10-26T04:26:36;12.90;99.90
17986;DHT22;9118;48.122;11.546;2022-10-26T04:29:04;12.90;99.90
17986;DHT22;9118;48.122;11.546;2022-10-26T04:31:32;12.90;99.90
17986;DHT22;9118;48.122;11.546;2022-10-26T04:33:59;13.00;99.90
17986;DHT22;9118;48.122;11.546;2022-10-26T04:36:28;13.00;99.90
17986;DHT22;9118;48.122;11.546;2022-10-26T04:38:57;13.00;99.90
17986;DHT22;9118;48.122;11.546;2022-10-26T04:41:23;13.00;99.90
17986;DHT22;9118;48.122;11.546;2022-10-26T04:43:50;13.10;99.90
17986;DHT22;9118;48.122;11.546;2022-10-26T04:46:19;13.00;99.90
17986;DHT22;9118;48.122;11.546;2022-10-26T04:48:46;12.90;99.90
17986;DHT22;9118;48.122;11.546;2022-10-26T04:51:13;12.90;99.90
17986;DHT22;9118;48.122;11.546;2022-10-26T04:53:40;12.70;99.90
17986;DHT22;9118;48.122;11.546;2022-10-26T04:56:07;12.50;99.90
17986;DHT22;9118;48.122;11.546;2022-10-26T04:58:34;12.50;99.90
17986;DHT22;9118;48.122;11.546;2022-10-26T05:01:01;12.60;99.90
17986;DHT22;9118;48.122;11.546;2022-10-26T05:03:30;12.60;99.90
17986;DHT22;9118;48.122;11.546;2022-10-26T05:05:57;12.60;99.90
17986;DHT22;9118;48.122;11.546;2022-10-26T05:08:26;12.60;99.90
17986;DHT22;9118;48.122;11.546;2022-10-26T05:10:54;12.40;99.90
17986;DHT22;9118;48.122;11.546;2022-10-26T05:13:22;12.30;99.90
17986;DHT22;9118;48.122;11.546;2022-10-26T05:15:52;12.30;99.90
17986;DHT22;9118;48.122;11.546;2022-10-26T05:18:19;12.30;99.90
17986;DHT22;9118;48.122;11.546;2022-10-26T05:20:47;12.40;99.90
17986;DHT22;9118;48.122;11.546;2022-10-26T05:23:17;12.50;99.90
17986;DHT22;9118;48.122;11.546;2022-10-26T05:25:45;12.60;99.90
17986;DHT22;9118;48.122;11.546;2022-10-26T05:28:13;12.80;99.90
17986;DHT22;9118;48.122;11.546;2022-10-26T05:30:41;12.90;99.90
17986;DHT22;9118;48.122;11.546;2022-10-26T05:33:10;13.00;99.90
17986;DHT22;9118;48.122;11.546;2022-10-26T05:35:37;13.00;99.90
17986;DHT22;9118;48.122;11.546;2022-10-26T05:38:12;13.00;99.90
17986;DHT22;9118;48.122;11.546;2022-10-26T05:40:46;13.10;99.90
17986;DHT22;9118;48.122;11.546;2022-10-26T05:43:13;13.00;99.90
17986;DHT22;9118;48.122;11.546;2022-10-26T05:45:40;13.00;99.90
17986;DHT22;9118;48.122;11.546;2022-10-26T05:48:07;13.00;99.90
17986;DHT22;9118;48.122;11.546;2022-10-26T05:50:34;13.00;99.90
17986;DHT22;9118;48.122;11.546;2022-10-26T05:53:01;13.00;99.90
17986;DHT22;9118;48.122;11.546;2022-10-26T05:55:32;13.00;99.90
17986;DHT22;9118;48.122;11.546;2022-10-26T05:58:00;13.10;99.90
17986;DHT22;9118;48.122;11.546;2022-10-26T06:00:29;13.00;99.90
17986;DHT22;9118;48.122;11.546;2022-10-26T06:03:06;13.00;99.90
17986;DHT22;9118;48.122;11.546;2022-10-26T06:05:40;12.90;99.90
17986;DHT22;9118;48.122;11.546;2022-10-26T06:08:09;12.90;99.90
17986;DHT22;9118;48.122;11.546;2022-10-26T06:10:39;13.00;99.90
17986;DHT22;9118;48.122;11.546;2022-10-26T06:13:06;13.00;99.90
17986;DHT22;9118;48.122;11.546;2022-10-26T06:15:42;13.00;99.90
17986;DHT22;9118;48.122;11.546;2022-10-26T06:18:21;13.10;99.90
17986;DHT22;9118;48.122;11.546;2022-10-26T06:21:06;13.20;99.90
17986;DHT22;9118;48.122;11.546;2022-10-26T06:23:49;13.30;99.90
17986;DHT22;9118;48.122;11.546;2022-10-26T06:26:31;13.40;99.90
17986;DHT22;9118;48.122;11.546;2022-10-26T06:29:12;13.50;99.90
17986;DHT22;9118;48.122;11.546;2022-10-26T06:31:44;13.40;99.90
17986;DHT22;9118;48.122;11.546;2022-10-26T06:34:20;13.30;99.90
17986;DHT22;9118;48.122;11.546;2022-10-26T06:36:49;13.30;99.90
17986;DHT22;9118;48.122;11.546;2022-10-26T06:39:19;13.20;99.90
17986;DHT22;9118;48.122;11.546;2022-10-26T06:41:49;13.30;99.90
17986;DHT22;9118;48.122;11.546;2022-10-26T06:44:21;13.40;99.90
17986;DHT22;9118;48.122;11.546;2022-10-26T06:46:54;13.50;99.90
17986;DHT22;9118;48.122;11.546;2022-10-26T06:49:28;13.50;99.90
17986;DHT22;9118;48.122;11.546;2022-10-26T06:51:58;13.50;99.90
17986;DHT22;9118;48.122;11.546;2022-10-26T06:54:32;13.60;99.90
17986;DHT22;9118;48.122;11.546;2022-10-26T06:57:02;13.60;99.90
17986;DHT22;9118;48.122;11.546;2022-10-26T06:59:36;13.50;99.90
17986;DHT22;9118;48.122;11.546;2022-10-26T07:02:08;13.70;99.90
17986;DHT22;9118;48.122;11.546;2022-10-26T07:04:40;15.50;99.90
17986;DHT22;9118;48.122;11.546;2022-10-26T07:07:13;14.70;99.90
17986;DHT22;9118;48.122;11.546;2022-10-26T07:09:41;13.90;99.90
17986;DHT22;9118;48.122;11.546;2022-10-26T07:12:18;13.80;99.90
17986;DHT22;9118;48.122;11.546;2022-10-26T07:14:47;12.70;99.90
17986;DHT22;9118;48.122;11.546;2022-10-26T07:17:28;13.90;99.90
17986;DHT22;9118;48.122;11.546;2022-10-26T07:20:19;13.90;99.90
17986;DHT22;9118;48.122;11.546;2022-10-26T07:22:55;14.40;99.90
17986;DHT22;9118;48.122;11.546;2022-10-26T07:25:25;14.30;99.90
17986;DHT22;9118;48.122;11.546;2022-10-26T07:28:02;14.10;99.90
17986;DHT22;9118;48.122;11.546;2022-10-26T07:30:32;14.30;99.90
17986;DHT22;9118;48.122;11.546;2022-10-26T07:33:00;14.10;99.90
17986;DHT22;9118;48.122;11.546;2022-10-26T07:35:32;14.10;99.90
17986;DHT22;9118;48.122;11.546;2022-10-26T07:38:03;14.30;99.90
17986;DHT22;9118;48.122;11.546;2022-10-26T07:40:32;14.10;99.90
17986;DHT22;9118;48.122;11.546;2022-10-26T07:43:08;14.10;99.90
17986;DHT22;9118;48.122;11.546;2022-10-26T07:45:54;14.50;99.90
17986;DHT22;9118;48.122;11.546;2022-10-26T07:48:23;14.40;99.90
17986;DHT22;9118;48.122;11.546;2022-10-26T07:50:54;14.00;99.90
17986;DHT22;9118;48.122;11.546;2022-10-26T07:53:40;14.10;99.90
17986;DHT22;9118;48.122;11.546;2022-10-26T07:56:11;14.10;99.90
17986;DHT22;9118;48.122;11.546;2022-10-26T07:58:44;14.40;99.90
17986;DHT22;9118;48.122;11.546;2022-10-26T08:01:22;14.20;99.90
17986;DHT22;9118;48.122;11.546;2022-10-26T08:03:53;14.40;99.90
17986;DHT22;9118;48.122;11.546;2022-10-26T08:06:22;14.50;99.90
17986;DHT22;9118;48.122;11.546;2022-10-26T08:08:52;14.30;99.90
17986;DHT22;9118;48.122;11.546;2022-10-26T08:11:19;14.30;99.90
17986;DHT22;9118;48.122;11.546;2022-10-26T08:13:46;14.30;99.90
17986;DHT22;9118;48.122;11.546;2022-10-26T08:16:17;14.30;99.90
17986;DHT22;9118;48.122;11.546;2022-10-26T08:18:46;14.30;99.90
17986;DHT22;9118;48.122;11.546;2022-10-26T08:21:13;14.30;99.90
17986;DHT22;9118;48.122;11.546;2022-10-26T08:23:40;14.40;99.90
17986;DHT22;9118;48.122;11.546;2022-10-26T08:26:09;14.50;99.90
17986;DHT22;9118;48.122;11.546;2022-10-26T08:28:38;13.90;99.90
17986;DHT22;9118;48.122;11.546;2022-10-26T08:31:06;14.70;99.90
17986;DHT22;9118;48.122;11.546;2022-10-26T08:33:33;14.80;99.90
17986;DHT22;9118;48.122;11.546;2022-10-26T08:36:02;14.90;99.90
17986;DHT22;9118;48.122;11.546;2022-10-26T08:38:30;15.10;99.90
17986;DHT22;9118;48.122;11.546;2022-10-26T08:40:59;15.20;99.90
17986;DHT22;9118;48.122;11.546;2022-10-26T08:43:37;15.30;99.90
17986;DHT22;9118;48.122;11.546;2022-10-26T08:46:10;15.50;99.90
17986;DHT22;9118;48.122;11.546;2022-10-26T08:48:43;15.70;99.90
17986;DHT22;9118;48.122;11.546;2022-10-26T08:51:15;15.90;99.90
17986;DHT22;9118;48.122;11.546;2022-10-26T08:53:48;15.80;99.90
17986;DHT22;9118;48.122;11.546;2022-10-26T08:56:20;15.90;99.90
17986;DHT22;9118;48.122;11.546;2022-10-26T08:58:53;16.00;99.90
17986;DHT22;9118;48.122;11.546;2022-10-26T09:01:22;16.20;99.90
17986;DHT22;9118;48.122;11.546;2022-10-26T09:03:53;16.40;99.90
17986;DHT22;9118;48.122;11.546;2022-10-26T09:06:30;16.60;99.90
17986;DHT22;9118;48.122;11.546;2022-10-26T09:09:04;16.70;99.90
17986;DHT22;9118;48.122;11.546;2022-10-26T09:11:55;16.90;99.90
17986;DHT22;9118;48.122;11.546;2022-10-26T09:14:40;17.50;99.90
17986;DHT22;9118;48.122;11.546;2022-10-26T09:17:14;17.20;99.90
17986;DHT22;9118;48.122;11.546;2022-10-26T09:20:19;17.30;99.90
17986;DHT22;9118;48.122;11.546;2022-10-26T09:22:56;17.40;99.90
17986;DHT22;9118;48.122;11.546;2022-10-26T09:25:30;17.40;99.90
17986;DHT22;9118;48.122;11.546;2022-10-26T09:28:01;17.50;99.90
17986;DHT22;9118;48.122;11.546;2022-10-26T09:30:36;17.60;99.90
17986;DHT22;9118;48.122;11.546;2022-10-26T09:33:10;18.30;99.90
17986;DHT22;9118;48.122;11.546;2022-10-26T09:35:43;17.90;99.90
17986;DHT22;9118;48.122;11.546;2022-10-26T09:38:22;18.00;99.90
17986;DHT22;9118;48.122;11.546;2022-10-26T09:40:55;18.50;99.90
17986;DHT22;9118;48.122;11.546;2022-10-26T09:43:28;18.20;99.90
17986;DHT22;9118;48.122;11.546;2022-10-26T09:45:59;18.30;99.90
17986;DHT22;9118;48.122;11.546;2022-10-26T09:48:30;18.40;99.90
17986;DHT22;9118;48.122;11.546;2022-10-26T09:51:02;18.40;99.90
17986;DHT22;9118;48.122;11.546;2022-10-26T09:53:30;19.70;99.90
17986;DHT22;9118;48.122;11.546;2022-10-26T09:56:02;18.60;99.90
17986;DHT22;9118;48.122;11.546;2022-10-26T09:58:33;18.80;99.90
17986;DHT22;9118;48.122;11.546;2022-10-26T10:01:05;18.70;99.90
17986;DHT22;9118;48.122;11.546;2022-10-26T10:03:32;18.70;99.90
17986;DHT22;9118;48.122;11.546;2022-10-26T10:06:14;18.70;99.90
17986;DHT22;9118;48.122;11.546;2022-10-26T10:08:43;18.60;99.90
17986;DHT22;9118;48.122;11.546;2022-10-26T10:11:12;19.40;99.90
17986;DHT22;9118;48.122;11.546;2022-10-26T10:13:41;17.50;99.90
17986;DHT22;9118;48.122;11.546;2022-10-26T10:16:20;18.60;99.90
17986;DHT22;9118;48.122;11.546;2022-10-26T10:18:53;18.60;99.90
17986;DHT22;9118;48.122;11.546;2022-10-26T10:21:20;18.70;99.90
17986;DHT22;9118;48.122;11.546;2022-10-26T10:23:49;18.70;99.90
17986;DHT22;9118;48.122;11.546;2022-10-26T10:26:18;18.60;99.90
17986;DHT22;9118;48.122;11.546;2022-10-26T10:28:56;19.00;99.90
17986;DHT22;9118;48.122;11.546;2022-10-26T10:31:28;18.80;99.90
17986;DHT22;9118;48.122;11.546;2022-10-26T10:33:56;18.90;99.90
17986;DHT22;9118;48.122;11.546;2022-10-26T10:36:25;18.90;99.90
17986;DHT22;9118;48.122;11.546;2022-10-26T10:38:54;19.00;99.90
17986;DHT22;9118;48.122;11.546;2022-10-26T10:41:25;19.10;99.90
17986;DHT22;9118;48.122;11.546;2022-10-26T10:43:55;19.10;99.90
17986;DHT22;9118;48.122;11.546;2022-10-26T10:46:29;19.10;99.90
17986;DHT22;9118;48.122;11.546;2022-10-26T10:49:02;19.20;99.90
17986;DHT22;9118;48.122;11.546;2022-10-26T10:51:34;19.20;99.90
17986;DHT22;9118;48.122;11.546;2022-10-26T10:54:02;19.30;99.90
17986;DHT22;9118;48.122;11.546;2022-10-26T10:56:40;19.30;99.90
17986;DHT22;9118;48.122;11.546;2022-10-26T10:59:38;19.30;99.90
17986;DHT22;9118;48.122;11.546;2022-10-26T11:05:27;19.10;99.90
17986;DHT22;9118;48.122;11.546;2022-10-26T11:08:31;19.00;99.90
17986;DHT22;9118;48.122;11.546;2022-10-26T11:11:24;18.90;99.90
17986;DHT22;9118;48.122;11.546;2022-10-26T11:14:24;18.80;99.90
17986;DHT22;9118;48.122;11.546;2022-10-26T11:17:07;19.10;99.90
17986;DHT22;9118;48.122;11.546;2022-10-26T11:20:16;19.30;99.90
17986;DHT22;9118;48.122;11.546;2022-10-26T11:23:13;19.20;99.90
17986;DHT22;9118;48.122;11.546;2022-10-26T11:26:08;20.40;99.90
17986;DHT22;9118;48.122;11.546;2022-10-26T11:32:14;19.20;99.90
17986;DHT22;9118;48.122;11.546;2022-10-26T11:34:59;19.60;99.90
17986;DHT22;9118;48.122;11.546;2022-10-26T11:37:38;19.20;99.90
17986;DHT22;9118;48.122;11.546;2022-10-26T11:40:25;19.10;99.90
17986;DHT22;9118;48.122;11.546;2022-10-26T11:43:09;19.00;99.90
17986;DHT22;9118;48.122;11.546;2022-10-26T11:45:43;19.10;99.90
17986;DHT22;9118;48.122;11.546;2022-10-26T11:48:15;19.20;99.90
17986;DHT22;9118;48.122;11.546;2022-10-26T11:51:32;18.90;99.90
17986;DHT22;9118;48.122;11.546;2022-10-26T11:53:56;19.30;99.90
17986;DHT22;9118;48.122;11.546;2022-10-26T11:56:42;19.50;99.90
17986;DHT22;9118;48.122;11.546;2022-10-26T11:59:34;19.20;99.90
17986;DHT22;9118;48.122;11.546;2022-10-26T12:02:13;19.00;99.90
17986;DHT22;9118;48.122;11.546;2022-10-26T12:04:42;19.00;99.90
17986;DHT22;9118;48.122;11.546;2022-10-26T12:07:14;18.90;99.90
17986;DHT22;9118;48.122;11.546;2022-10-26T12:09:43;18.80;99.90
17986;DHT22;9118;48.122;11.546;2022-10-26T12:12:17;18.80;99.90
17986;DHT22;9118;48.122;11.546;2022-10-26T12:14:50;18.80;99.90
17986;DHT22;9118;48.122;11.546;2022-10-26T12:17:21;18.70;99.90
17986;DHT22;9118;48.122;11.546;2022-10-26T12:19:54;18.70;99.90
17986;DHT22;9118;48.122;11.546;2022-10-26T12:22:28;18.80;99.90
17986;DHT22;9118;48.122;11.546;2022-10-26T12:25:18;18.80;99.90
17986;DHT22;9118;48.122;11.546;2022-10-26T12:27:54;18.60;99.90
17986;DHT22;9118;48.122;11.546;2022-10-26T12:30:28;18.70;99.90
17986;DHT22;9118;48.122;11.546;2022-10-26T12:32:56;18.70;99.90
17986;DHT22;9118;48.122;11.546;2022-10-26T12:35:35;18.90;99.90
17986;DHT22;9118;48.122;11.546;2022-10-26T12:41:12;19.20;99.90
17986;DHT22;9118;48.122;11.546;2022-10-26T12:43:44;19.20;99.90
17986;DHT22;9118;48.122;11.546;2022-10-26T12:46:39;19.40;99.90
17986;DHT22;9118;48.122;11.546;2022-10-26T12:52:30;19.60;99.90
17986;DHT22;9118;48.122;11.546;2022-10-26T12:55:17;19.60;99.90
17986;DHT22;9118;48.122;11.546;2022-10-26T12:57:58;19.70;99.90
17986;DHT22;9118;48.122;11.546;2022-10-26T13:00:29;19.80;99.90
17986;DHT22;9118;48.122;11.546;2022-10-26T13:03:08;19.70;99.90
17986;DHT22;9118;48.122;11.546;2022-10-26T13:06:00;19.80;99.90
17986;DHT22;9118;48.122;11.546;2022-10-26T13:08:38;19.80;99.90
17986;DHT22;9118;48.122;11.546;2022-10-26T13:11:12;20.00;99.90
17986;DHT22;9118;48.122;11.546;2022-10-26T13:13:40;20.20;99.90
17986;DHT22;9118;48.122;11.546;2022-10-26T13:16:15;20.10;99.90
17986;DHT22;9118;48.122;11.546;2022-10-26T13:18:44;20.10;99.90
17986;DHT22;9118;48.122;11.546;2022-10-26T13:21:14;19.90;99.90
17986;DHT22;9118;48.122;11.546;2022-10-26T13:23:44;19.90;99.90
17986;DHT22;9118;48.122;11.546;2022-10-26T13:26:15;19.80;99.90
17986;DHT22;9118;48.122;11.546;2022-10-26T13:28:48;19.80;99.90
17986;DHT22;9118;48.122;11.546;2022-10-26T13:34:18;19.70;99.90
17986;DHT22;9118;48.122;11.546;2022-10-26T13:36:50;19.60;99.90
17986;DHT22;9118;48.122;11.546;2022-10-26T13:39:22;19.60;99.90
17986;DHT22;9118;48.122;11.546;2022-10-26T13:41:53;19.40;99.90
17986;DHT22;9118;48.122;11.546;2022-10-26T13:44:24;19.40;99.90
17986;DHT22;9118;48.122;11.546;2022-10-26T13:46:57;19.40;99.90
17986;DHT22;9118;48.122;11.546;2022-10-26T13:49:32;19.40;99.90
17986;DHT22;9118;48.122;11.546;2022-10-26T13:52:02;19.40;99.90
17986;DHT22;9118;48.122;11.546;2022-10-26T13:54:33;19.50;99.90
17986;DHT22;9118;48.122;11.546;2022-10-26T13:57:09;19.50;99.90
17986;DHT22;9118;48.122;11.546;2022-10-26T13:59:39;19.50;99.90
17986;DHT22;9118;48.122;11.546;2022-10-26T14:02:16;19.50;99.90
17986;DHT22;9118;48.122;11.546;2022-10-26T14:04:51;19.50;99.90
17986;DHT22;9118;48.122;11.546;2022-10-26T14:07:22;19.50;99.90
17986;DHT22;9118;48.122;11.546;2022-10-26T14:09:54;19.60;99.90
17986;DHT22;9118;48.122;11.546;2022-10-26T14:12:21;19.60;99.90
17986;DHT22;9118;48.122;11.546;2022-10-26T14:14:50;19.60;99.90
17986;DHT22;9118;48.122;11.546;2022-10-26T14:17:19;19.60;99.90
17986;DHT22;9118;48.122;11.546;2022-10-26T14:19:49;19.60;99.90
17986;DHT22;9118;48.122;11.546;2022-10-26T14:22:21;19.60;99.90
17986;DHT22;9118;48.122;11.546;2022-10-26T14:24:53;18.30;99.90
17986;DHT22;9118;48.122;11.546;2022-10-26T14:27:22;19.70;99.90
17986;DHT22;9118;48.122;11.546;2022-10-26T14:29:51;19.60;99.90
17986;DHT22;9118;48.122;11.546;2022-10-26T14:32:20;19.50;99.90
17986;DHT22;9118;48.122;11.546;2022-10-26T14:34:48;19.40;99.90
17986;DHT22;9118;48.122;11.546;2022-10-26T14:37:25;19.30;99.90
17986;DHT22;9118;48.122;11.546;2022-10-26T14:39:57;19.30;99.90
17986;DHT22;9118;48.122;11.546;2022-10-26T14:42:26;19.20;99.90
17986;DHT22;9118;48.122;11.546;2022-10-26T14:44:55;18.70;99.90
17986;DHT22;9118;48.122;11.546;2022-10-26T14:47:24;19.10;99.90
17986;DHT22;9118;48.122;11.546;2022-10-26T14:49:53;19.20;99.90
17986;DHT22;9118;48.122;11.546;2022-10-26T14:52:23;19.20;99.90
17986;DHT22;9118;48.122;11.546;2022-10-26T14:54:59;19.20;99.90
17986;DHT22;9118;48.122;11.546;2022-10-26T14:57:35;19.20;99.90
17986;DHT22;9118;48.122;11.546;2022-10-26T15:00:12;19.10;99.90
17986;DHT22;9118;48.122;11.546;2022-10-26T15:02:41;19.10;99.90
17986;DHT22;9118;48.122;11.546;2022-10-26T15:05:24;19.00;99.90
17986;DHT22;9118;48.122;11.546;2022-10-26T15:07:53;19.00;99.90
17986;DHT22;9118;48.122;11.546;2022-10-26T15:10:45;19.00;99.90
17986;DHT22;9118;48.122;11.546;2022-10-26T15:13:27;19.00;99.90
17986;DHT22;9118;48.122;11.546;2022-10-26T15:15:57;18.90;99.90
17986;DHT22;9118;48.122;11.546;2022-10-26T15:18:35;18.90;99.90
17986;DHT22;9118;48.122;11.546;2022-10-26T15:21:19;18.90;99.90
17986;DHT22;9118;48.122;11.546;2022-10-26T15:23:48;18.90;99.90
17986;DHT22;9118;48.122;11.546;2022-10-26T15:26:15;18.90;99.90
17986;DHT22;9118;48.122;11.546;2022-10-26T15:28:43;18.90;99.90
17986;DHT22;9118;48.122;11.546;2022-10-26T15:31:31;18.90;99.90
17986;DHT22;9118;48.122;11.546;2022-10-26T15:34:14;18.80;99.90
17986;DHT22;9118;48.122;11.546;2022-10-26T15:36:42;18.70;99.90
17986;DHT22;9118;48.122;11.546;2022-10-26T15:39:10;18.70;99.90
17986;DHT22;9118;48.122;11.546;2022-10-26T15:41:43;18.70;99.90
17986;DHT22;9118;48.122;11.546;2022-10-26T15:44:13;18.70;99.90
17986;DHT22;9118;48.122;11.546;2022-10-26T15:46:41;18.70;99.90
17986;DHT22;9118;48.122;11.546;2022-10-26T15:49:14;18.60;99.90
17986;DHT22;9118;48.122;11.546;2022-10-26T15:51:44;18.60;99.90
17986;DHT22;9118;48.122;11.546;2022-10-26T15:54:12;18.60;99.90
17986;DHT22;9118;48.122;11.546;2022-10-26T15:56:39;18.50;99.90
17986;DHT22;9118;48.122;11.546;2022-10-26T15:59:13;18.50;99.90
17986;DHT22;9118;48.122;11.546;2022-10-26T16:01:42;18.50;99.90
17986;DHT22;9118;48.122;11.546;2022-10-26T16:04:09;18.50;99.90
17986;DHT22;9118;48.122;11.546;2022-10-26T16:06:38;18.50;99.90
17986;DHT22;9118;48.122;11.546;2022-10-26T16:09:11;18.40;99.90
17986;DHT22;9118;48.122;11.546;2022-10-26T16:11:40;18.40;99.90
17986;DHT22;9118;48.122;11.546;2022-10-26T16:14:08;18.40;99.90
17986;DHT22;9118;48.122;11.546;2022-10-26T16:16:35;18.40;99.90
17986;DHT22;9118;48.122;11.546;2022-10-26T16:19:03;18.30;99.90